createdAt,value
2018-03-31T00:01:28.800Z,9.10
2018-03-31T00:03:55.850Z,9.10
2018-03-31T00:06:22.955Z,9.10
2018-03-31T00:08:52.150Z,9.10
2018-03-31T00:11:19.254Z,9.10
2018-03-31T00:13:46.273Z,9.00
2018-03-31T00:16:15.555Z,9.10
2018-03-31T00:18:42.584Z,9.10
2018-03-31T00:21:09.622Z,9.10
2018-03-31T00:23:36.655Z,9.10
2018-03-31T00:26:03.682Z,9.10
2018-03-31T00:28:30.702Z,9.10
2018-03-31T00:30:57.749Z,9.10
2018-03-31T00:33:24.791Z,9.20
2018-03-31T00:35:51.863Z,9.30
2018-03-31T00:38:18.862Z,9.40
2018-03-31T00:40:45.839Z,9.50
2018-03-31T00:43:12.819Z,9.60
2018-03-31T00:45:43.306Z,9.40
2018-03-31T00:48:11.459Z,9.40
2018-03-31T00:50:38.478Z,9.30
2018-03-31T00:53:09.484Z,9.10
2018-03-31T00:55:37.598Z,9.20
2018-03-31T00:58:04.615Z,9.10
2018-03-31T01:00:32.741Z,9.00
2018-03-31T01:02:59.728Z,9.00
2018-03-31T01:05:39.644Z,9.00
2018-03-31T01:08:06.710Z,9.00
2018-03-31T01:10:33.690Z,9.00
2018-03-31T01:13:01.444Z,8.90
2018-03-31T01:15:28.513Z,8.90
2018-03-31T01:17:55.543Z,8.90
2018-03-31T01:20:22.571Z,8.90
2018-03-31T01:22:49.724Z,8.80
2018-03-31T01:25:17.540Z,8.80
2018-03-31T01:27:44.617Z,8.80
2018-03-31T01:30:16.171Z,8.70
2018-03-31T01:32:43.211Z,8.70
2018-03-31T01:35:11.346Z,8.70
2018-03-31T01:37:38.353Z,8.70
2018-03-31T01:40:05.617Z,8.70
2018-03-31T01:42:32.658Z,8.60
2018-03-31T01:44:59.671Z,8.60
2018-03-31T01:47:37.526Z,8.60
2018-03-31T01:50:05.277Z,8.60
2018-03-31T01:52:32.322Z,8.60
2018-03-31T01:54:59.313Z,8.50
2018-03-31T01:57:27.096Z,8.50
2018-03-31T01:59:54.138Z,8.50
2018-03-31T02:02:23.398Z,8.50
2018-03-31T02:04:51.337Z,8.40
2018-03-31T02:07:18.479Z,8.50
2018-03-31T02:09:45.466Z,8.50
2018-03-31T02:12:15.172Z,8.50
2018-03-31T02:14:42.212Z,8.50
2018-03-31T02:17:17.629Z,8.50
2018-03-31T02:19:45.387Z,8.60
2018-03-31T02:22:12.442Z,8.50
2018-03-31T02:27:18.817Z,8.40
2018-03-31T02:29:45.773Z,8.30
2018-03-31T02:32:13.090Z,8.20
2018-03-31T02:34:41.895Z,8.10
2018-03-31T02:37:09.690Z,8.10
2018-03-31T02:39:36.693Z,8.00
2018-03-31T02:42:03.764Z,8.00
2018-03-31T02:44:30.754Z,8.00
2018-03-31T02:46:58.507Z,7.90
2018-03-31T02:49:25.499Z,7.90
2018-03-31T02:51:52.495Z,7.90
2018-03-31T02:54:19.484Z,7.80
2018-03-31T02:56:46.525Z,7.80
2018-03-31T02:59:13.506Z,7.80
2018-03-31T03:01:41.299Z,7.80
2018-03-31T03:04:09.041Z,7.80
2018-03-31T03:06:36.026Z,7.80
2018-03-31T03:09:03.803Z,7.80
2018-03-31T03:11:31.606Z,7.80
2018-03-31T03:14:03.774Z,7.80
2018-03-31T03:16:30.821Z,7.80
2018-03-31T03:18:58.585Z,7.70
2018-03-31T03:21:25.825Z,7.70
2018-03-31T03:23:52.877Z,7.60
2018-03-31T03:26:19.925Z,7.60
2018-03-31T03:28:46.923Z,7.60
2018-03-31T03:31:13.940Z,7.50
2018-03-31T03:33:40.955Z,7.50
2018-03-31T03:36:08.710Z,7.50
2018-03-31T03:38:38.168Z,7.50
2018-03-31T03:41:05.177Z,7.50
2018-03-31T03:43:32.175Z,7.50
2018-03-31T03:45:59.919Z,7.50
2018-03-31T03:48:26.904Z,7.40
2018-03-31T03:50:53.912Z,7.40
2018-03-31T03:53:20.916Z,7.40
2018-03-31T03:55:48.709Z,7.30
2018-03-31T03:58:20.081Z,7.30
2018-03-31T04:00:47.090Z,7.30
2018-03-31T04:03:14.097Z,7.30
2018-03-31T04:05:41.209Z,7.40
2018-03-31T04:08:08.209Z,7.40
2018-03-31T04:10:35.264Z,7.40
2018-03-31T04:13:03.023Z,7.30
2018-03-31T04:15:30.025Z,7.30
2018-03-31T04:17:57.057Z,7.30
2018-03-31T04:20:24.094Z,7.30
2018-03-31T04:22:51.092Z,7.30
2018-03-31T04:25:18.888Z,7.30
2018-03-31T04:27:45.876Z,7.30
2018-03-31T04:30:12.895Z,7.20
2018-03-31T04:32:39.916Z,7.30
2018-03-31T04:35:06.953Z,7.30
2018-03-31T04:37:33.973Z,7.30
2018-03-31T04:40:00.987Z,7.30
2018-03-31T04:42:28.037Z,7.40
2018-03-31T04:44:55.030Z,7.40
2018-03-31T04:47:39.918Z,7.40
2018-03-31T04:50:16.677Z,7.40
2018-03-31T04:52:43.820Z,7.40
2018-03-31T04:55:11.571Z,7.30
2018-03-31T04:57:38.629Z,7.30
2018-03-31T05:00:05.614Z,7.30
2018-03-31T05:02:32.630Z,7.30
2018-03-31T05:04:59.624Z,7.30
2018-03-31T05:07:26.662Z,7.30
2018-03-31T05:09:54.981Z,7.30
2018-03-31T05:12:25.605Z,7.20
2018-03-31T05:14:52.646Z,7.20
2018-03-31T05:17:20.393Z,7.10
2018-03-31T05:19:47.413Z,7.10
2018-03-31T05:22:14.418Z,7.20
2018-03-31T05:24:42.866Z,7.20
2018-03-31T05:27:09.878Z,7.10
2018-03-31T05:29:37.629Z,7.10
2018-03-31T05:32:04.612Z,7.10
2018-03-31T05:34:32.463Z,7.10
2018-03-31T05:36:59.460Z,7.10
2018-03-31T05:39:27.436Z,7.10
2018-03-31T05:41:54.436Z,7.00
2018-03-31T05:44:21.464Z,7.10
2018-03-31T05:46:49.397Z,7.10
2018-03-31T05:49:16.378Z,7.10
2018-03-31T05:51:44.171Z,7.20
2018-03-31T05:54:11.464Z,7.20
2018-03-31T05:56:38.424Z,7.20
2018-03-31T05:59:05.568Z,7.20
2018-03-31T06:01:32.573Z,7.20
2018-03-31T06:03:59.668Z,7.20
2018-03-31T06:06:27.531Z,7.20
2018-03-31T06:08:55.400Z,7.20
2018-03-31T06:11:22.359Z,7.20
2018-03-31T06:13:49.368Z,7.20
2018-03-31T06:16:16.520Z,7.20
2018-03-31T06:18:43.539Z,7.20
2018-03-31T06:21:10.628Z,7.20
2018-03-31T06:23:37.582Z,7.30
2018-03-31T06:26:04.578Z,7.30
2018-03-31T06:28:31.577Z,7.30
2018-03-31T06:30:59.326Z,7.30
2018-03-31T06:33:26.464Z,7.30
2018-03-31T06:35:53.472Z,7.30
2018-03-31T06:38:21.232Z,7.30
2018-03-31T06:40:48.246Z,7.20
2018-03-31T06:43:15.245Z,7.30
2018-03-31T06:45:46.545Z,7.30
2018-03-31T06:48:13.594Z,7.30
2018-03-31T06:50:40.624Z,7.30
2018-03-31T06:53:07.621Z,7.30
2018-03-31T06:55:35.364Z,7.40
2018-03-31T06:58:02.346Z,7.30
2018-03-31T07:00:30.108Z,7.40
2018-03-31T07:02:57.862Z,7.40
2018-03-31T07:05:24.850Z,7.30
2018-03-31T07:07:52.620Z,7.40
2018-03-31T07:10:20.383Z,7.40
2018-03-31T07:12:47.387Z,7.30
2018-03-31T07:15:14.345Z,7.30
2018-03-31T07:17:41.337Z,7.30
2018-03-31T07:20:08.587Z,7.40
2018-03-31T07:22:35.568Z,7.40
2018-03-31T07:25:02.552Z,7.40
2018-03-31T07:27:32.423Z,7.40
2018-03-31T07:29:59.366Z,7.40
2018-03-31T07:32:26.376Z,7.40
2018-03-31T07:34:53.344Z,7.40
2018-03-31T07:37:21.097Z,7.40
2018-03-31T07:39:50.068Z,7.40
2018-03-31T07:42:17.076Z,7.30
2018-03-31T07:44:44.111Z,7.30
2018-03-31T07:47:11.141Z,7.30
2018-03-31T07:49:38.125Z,7.30
2018-03-31T07:52:05.131Z,7.30
2018-03-31T07:54:32.158Z,7.30
2018-03-31T07:56:59.171Z,7.30
2018-03-31T07:59:26.164Z,7.30
2018-03-31T08:01:53.166Z,7.30
2018-03-31T08:04:20.903Z,7.30
2018-03-31T08:06:48.872Z,7.30
2018-03-31T08:09:15.854Z,7.30
2018-03-31T08:11:42.983Z,7.40
2018-03-31T08:14:10.025Z,7.30
2018-03-31T08:16:37.015Z,7.30
2018-03-31T08:19:04.974Z,7.30
2018-03-31T08:21:32.001Z,7.30
2018-03-31T08:23:59.004Z,7.40
2018-03-31T08:26:26.024Z,7.40
2018-03-31T08:28:53.032Z,7.30
2018-03-31T08:31:20.050Z,7.30
2018-03-31T08:33:50.287Z,7.30
2018-03-31T08:36:17.304Z,7.30
2018-03-31T08:38:48.517Z,7.30
2018-03-31T08:41:15.516Z,7.30
2018-03-31T08:43:43.300Z,7.30
2018-03-31T08:46:12.345Z,7.30
2018-03-31T08:48:39.345Z,7.30
2018-03-31T08:51:09.303Z,7.40
2018-03-31T08:53:41.050Z,7.40
2018-03-31T08:59:15.146Z,7.40
2018-03-31T09:01:43.288Z,7.40
2018-03-31T09:04:11.249Z,7.40
2018-03-31T09:06:39.432Z,7.40
2018-03-31T09:09:11.073Z,7.40
2018-03-31T09:11:38.875Z,7.50
2018-03-31T09:14:09.582Z,7.50
2018-03-31T09:16:39.337Z,7.40
2018-03-31T09:19:07.743Z,7.40
2018-03-31T09:21:39.790Z,7.40
2018-03-31T09:24:11.931Z,7.50
2018-03-31T09:26:42.332Z,7.50
2018-03-31T09:29:09.384Z,7.50
2018-03-31T09:31:36.468Z,7.50
2018-03-31T09:34:03.458Z,7.60
2018-03-31T09:36:32.351Z,7.60
2018-03-31T09:38:59.848Z,7.60
2018-03-31T09:41:26.862Z,7.60
2018-03-31T09:43:53.971Z,7.70
2018-03-31T09:46:21.057Z,7.70
2018-03-31T09:48:48.891Z,7.70
2018-03-31T09:51:15.914Z,7.70
2018-03-31T09:53:42.948Z,7.80
2018-03-31T09:56:09.977Z,7.80
2018-03-31T10:01:09.314Z,8.20
2018-03-31T10:03:37.121Z,8.20
2018-03-31T10:06:04.169Z,8.20
2018-03-31T10:08:31.454Z,8.20
2018-03-31T10:11:01.801Z,8.20
2018-03-31T10:13:38.829Z,8.20
2018-03-31T10:16:05.936Z,8.20
2018-03-31T10:18:35.145Z,8.20
2018-03-31T10:21:03.366Z,8.20
2018-03-31T10:23:31.245Z,8.30
2018-03-31T10:26:02.068Z,8.40
2018-03-31T10:28:30.661Z,8.40
2018-03-31T10:31:01.435Z,8.40
2018-03-31T10:33:28.485Z,8.40
2018-03-31T10:35:56.770Z,8.40
2018-03-31T10:38:31.791Z,8.40
2018-03-31T10:41:04.672Z,8.40
2018-03-31T10:43:38.401Z,8.50
2018-03-31T10:46:06.641Z,8.60
2018-03-31T10:48:34.227Z,8.70
2018-03-31T10:51:01.414Z,8.70
2018-03-31T10:53:29.333Z,8.60
2018-03-31T10:55:57.407Z,8.60
2018-03-31T10:58:24.491Z,8.50
2018-03-31T11:00:56.385Z,8.60
2018-03-31T11:03:34.795Z,8.60
2018-03-31T11:06:07.226Z,8.70
2018-03-31T11:08:37.388Z,9.00
2018-03-31T11:11:04.410Z,9.00
2018-03-31T11:13:53.916Z,9.20
2018-03-31T11:16:32.885Z,9.40
2018-03-31T11:19:11.396Z,9.40
2018-03-31T11:21:38.457Z,9.50
2018-03-31T11:24:14.814Z,9.60
2018-03-31T11:29:38.663Z,9.80
2018-03-31T11:32:10.146Z,9.90
2018-03-31T11:34:38.654Z,9.90
2018-03-31T11:37:09.462Z,9.90
2018-03-31T11:39:41.221Z,9.90
2018-03-31T11:42:09.316Z,10.10
2018-03-31T11:44:54.744Z,10.10
2018-03-31T11:47:23.051Z,10.00
2018-03-31T11:49:55.206Z,9.90
2018-03-31T11:52:27.367Z,10.00
2018-03-31T11:54:55.329Z,10.00
2018-03-31T11:57:22.500Z,10.00
2018-03-31T11:59:56.686Z,9.90
2018-03-31T12:02:26.426Z,9.70
2018-03-31T12:04:54.316Z,9.90
2018-03-31T12:07:22.116Z,10.00
2018-03-31T12:09:50.497Z,10.00
2018-03-31T12:12:28.952Z,10.20
2018-03-31T12:14:57.121Z,10.20
2018-03-31T12:17:24.210Z,10.50
2018-03-31T12:19:55.014Z,10.70
2018-03-31T12:22:26.544Z,10.90
2018-03-31T12:24:58.590Z,11.10
2018-03-31T12:27:25.649Z,11.00
2018-03-31T12:30:08.909Z,11.20
2018-03-31T12:32:39.183Z,11.30
2018-03-31T12:35:10.245Z,11.80
2018-03-31T12:37:40.050Z,12.00
2018-03-31T12:40:07.987Z,12.10
2018-03-31T12:42:41.934Z,12.10
2018-03-31T12:45:08.987Z,11.80
2018-03-31T12:47:36.031Z,11.50
2018-03-31T12:50:03.172Z,11.50
2018-03-31T12:52:39.593Z,11.30
2018-03-31T12:55:08.015Z,11.30
2018-03-31T12:57:38.984Z,11.20
2018-03-31T13:00:10.100Z,11.40
2018-03-31T13:02:41.595Z,11.50
2018-03-31T13:05:08.764Z,11.50
2018-03-31T13:07:35.833Z,11.50
2018-03-31T13:10:03.019Z,11.40
2018-03-31T13:12:46.323Z,11.40
2018-03-31T13:21:32.206Z,11.00
2018-03-31T13:23:59.259Z,11.00
2018-03-31T13:26:40.028Z,11.10
2018-03-31T13:29:07.903Z,11.30
2018-03-31T13:31:38.515Z,11.20
2018-03-31T13:34:05.652Z,11.10
2018-03-31T13:36:32.774Z,11.30
2018-03-31T13:39:00.700Z,11.30
2018-03-31T13:41:28.901Z,11.40
2018-03-31T13:43:55.907Z,11.50
2018-03-31T13:46:23.769Z,11.60
2018-03-31T13:48:50.815Z,11.60
2018-03-31T13:51:17.843Z,11.80
2018-03-31T13:53:44.856Z,12.10
2018-03-31T13:56:12.075Z,12.30
2018-03-31T13:58:39.141Z,12.40
2018-03-31T14:01:06.199Z,12.40
2018-03-31T14:03:33.225Z,12.60
2018-03-31T14:06:00.411Z,12.60
2018-03-31T14:08:39.006Z,12.80
2018-03-31T14:11:06.203Z,12.80
2018-03-31T14:13:39.261Z,12.80
2018-03-31T14:16:09.347Z,13.00
2018-03-31T14:18:40.183Z,12.90
2018-03-31T14:21:10.266Z,13.00
2018-03-31T14:23:38.682Z,12.80
2018-03-31T14:26:09.492Z,12.80
2018-03-31T14:28:43.570Z,12.70
2018-03-31T14:31:12.152Z,12.50
2018-03-31T14:33:40.408Z,12.30
2018-03-31T14:36:09.338Z,12.10
2018-03-31T14:38:41.957Z,11.90
2018-03-31T14:41:09.231Z,11.80
2018-03-31T14:43:39.037Z,11.80
2018-03-31T14:46:10.885Z,11.70
2018-03-31T14:48:40.129Z,11.60
2018-03-31T14:51:09.278Z,11.50
2018-03-31T14:53:42.085Z,11.50
2018-03-31T14:56:09.237Z,11.60
2018-03-31T14:58:39.106Z,11.70
2018-03-31T15:01:09.837Z,11.90
2018-03-31T15:03:39.205Z,11.90
2018-03-31T15:06:10.253Z,12.00
2018-03-31T15:08:38.888Z,12.10
2018-03-31T15:11:09.629Z,12.20
2018-03-31T15:13:40.254Z,12.10
2018-03-31T15:16:08.789Z,12.10
2018-03-31T15:18:41.268Z,12.00
2018-03-31T15:21:09.154Z,12.00
2018-03-31T15:23:40.027Z,12.00
2018-03-31T15:26:09.681Z,12.10
2018-03-31T15:28:39.717Z,12.00
2018-03-31T15:31:09.724Z,12.10
2018-03-31T15:33:40.324Z,12.10
2018-03-31T15:36:08.867Z,12.20
2018-03-31T15:38:42.416Z,12.20
2018-03-31T15:41:10.540Z,12.10
2018-03-31T15:43:39.275Z,12.10
2018-03-31T15:46:09.301Z,12.10
2018-03-31T15:48:39.971Z,12.20
2018-03-31T15:51:08.854Z,12.20
2018-03-31T15:53:39.339Z,12.20
2018-03-31T15:56:13.475Z,12.10
2018-03-31T15:58:40.637Z,12.10
2018-03-31T16:01:07.850Z,12.10
2018-03-31T16:03:34.985Z,12.00
2018-03-31T16:06:02.209Z,12.00
2018-03-31T16:08:29.345Z,11.90
2018-03-31T16:10:56.515Z,11.90
2018-03-31T16:13:38.676Z,11.80
2018-03-31T16:16:09.428Z,11.60
2018-03-31T16:18:40.244Z,11.60
2018-03-31T16:21:09.101Z,11.50
2018-03-31T16:23:39.058Z,11.40
2018-03-31T16:26:08.625Z,11.40
2018-03-31T16:28:39.036Z,11.40
2018-03-31T16:31:09.758Z,11.40
2018-03-31T16:33:40.429Z,11.30
2018-03-31T16:36:09.193Z,11.30
2018-03-31T16:38:42.955Z,11.30
2018-03-31T16:41:10.090Z,11.30
2018-03-31T16:43:39.890Z,11.30
2018-03-31T16:46:09.897Z,11.20
2018-03-31T16:48:45.426Z,11.20
2018-03-31T16:51:13.282Z,11.20
2018-03-31T16:53:45.283Z,11.10
2018-03-31T16:56:12.358Z,11.10
2018-03-31T16:58:42.839Z,11.10
2018-03-31T17:01:10.621Z,11.20
2018-03-31T17:03:39.530Z,11.10
2018-03-31T17:06:09.356Z,11.10
2018-03-31T17:08:38.920Z,11.00
2018-03-31T17:11:05.972Z,11.00
2018-03-31T17:13:40.248Z,10.90
2018-03-31T17:16:10.623Z,10.90
2018-03-31T17:18:39.693Z,10.80
2018-03-31T17:21:10.278Z,10.70
2018-03-31T17:23:38.859Z,10.60
2018-03-31T17:26:10.890Z,10.60
2018-03-31T17:28:49.949Z,10.60
2018-03-31T17:31:17.010Z,10.50
2018-03-31T17:33:44.003Z,10.50
2018-03-31T17:36:11.081Z,10.50
2018-03-31T17:38:38.965Z,10.40
2018-03-31T17:41:09.516Z,10.30
2018-03-31T17:43:41.469Z,10.20
2018-03-31T17:46:10.349Z,10.10
2018-03-31T17:48:39.260Z,10.10
2018-03-31T17:51:10.288Z,9.90
2018-03-31T17:53:38.968Z,9.90
2018-03-31T17:56:10.042Z,9.70
2018-03-31T18:09:40.600Z,9.20
2018-03-31T18:12:07.677Z,9.30
2018-03-31T18:14:38.321Z,9.10
2018-03-31T18:17:09.809Z,8.70
2018-03-31T18:19:39.385Z,8.50
2018-03-31T18:22:09.432Z,8.50
2018-03-31T18:24:36.562Z,8.40
2018-03-31T18:27:04.386Z,8.00
2018-03-31T18:29:31.462Z,8.00
2018-03-31T18:31:58.486Z,7.90
2018-03-31T18:34:25.551Z,7.80
2018-03-31T18:36:52.634Z,7.70
2018-03-31T18:39:19.666Z,7.60
2018-03-31T18:41:46.752Z,7.70
2018-03-31T18:44:13.799Z,7.70
2018-03-31T18:46:40.800Z,7.70
2018-03-31T18:49:07.938Z,7.60
2018-03-31T18:51:35.002Z,7.50
2018-03-31T18:54:02.160Z,7.60
2018-03-31T18:56:39.341Z,7.50
2018-03-31T18:59:07.954Z,7.60
2018-03-31T19:01:36.036Z,7.40
2018-03-31T19:04:03.158Z,7.40
2018-03-31T19:06:30.230Z,7.30
2018-03-31T19:09:11.431Z,7.20
2018-03-31T19:11:39.109Z,7.20
2018-03-31T19:14:06.224Z,7.10
2018-03-31T19:16:38.947Z,7.00
2018-03-31T19:19:10.224Z,6.90
2018-03-31T19:21:40.713Z,6.80
2018-03-31T19:24:07.995Z,6.70
2018-03-31T19:26:37.143Z,6.60
2018-03-31T19:29:04.146Z,6.50
2018-03-31T19:31:32.014Z,6.50
2018-03-31T19:33:59.094Z,6.50
2018-03-31T19:36:26.301Z,6.40
2018-03-31T19:38:53.363Z,6.40
2018-03-31T19:41:20.498Z,6.40
2018-03-31T19:44:08.933Z,6.30
2018-03-31T19:46:36.721Z,6.30
2018-03-31T19:49:09.602Z,6.30
2018-03-31T19:51:38.785Z,6.00
2018-03-31T19:54:05.844Z,6.00
2018-03-31T19:56:32.876Z,5.90
2018-03-31T19:59:09.245Z,5.70
2018-03-31T20:01:43.090Z,5.70
2018-03-31T20:04:10.118Z,5.70
2018-03-31T20:06:37.142Z,5.70
2018-03-31T20:09:08.647Z,5.60
2018-03-31T20:11:35.766Z,5.60
2018-03-31T20:14:04.505Z,5.30
2018-03-31T20:16:32.392Z,5.30
2018-03-31T20:18:59.499Z,5.30
2018-03-31T20:21:27.308Z,5.30
2018-03-31T20:23:54.351Z,5.30
2018-03-31T20:26:21.377Z,5.20
2018-03-31T20:29:09.090Z,5.20
2018-03-31T20:31:39.798Z,5.10
2018-03-31T20:34:08.652Z,4.90
2018-03-31T20:36:35.838Z,4.90
2018-03-31T20:39:02.978Z,4.90
2018-03-31T20:41:30.092Z,4.80
2018-03-31T20:43:59.054Z,4.80
2018-03-31T20:46:26.062Z,4.70
2018-03-31T20:48:53.070Z,4.70
2018-03-31T20:51:20.229Z,4.60
2018-03-31T20:53:47.257Z,4.60
2018-03-31T20:56:14.282Z,4.50
2018-03-31T20:58:42.363Z,4.50
2018-03-31T21:01:10.217Z,4.40
2018-03-31T21:03:37.326Z,4.40
2018-03-31T21:06:11.027Z,4.40
2018-03-31T21:08:39.051Z,4.30
2018-03-31T21:11:06.150Z,4.30
2018-03-31T21:13:41.182Z,4.10
2018-03-31T21:16:12.360Z,4.10
2018-03-31T21:18:40.418Z,4.10
2018-03-31T21:21:08.973Z,4.10
2018-03-31T21:23:39.283Z,4.10
2018-03-31T21:29:03.939Z,4.40
2018-03-31T21:31:38.838Z,4.30
2018-03-31T21:34:05.876Z,4.30
2018-03-31T21:36:38.948Z,4.20
2018-03-31T21:39:05.977Z,4.10
2018-03-31T21:41:33.046Z,4.00
2018-03-31T21:44:00.046Z,4.10
2018-03-31T21:46:40.883Z,4.10
2018-03-31T21:52:13.604Z,4.00
2018-03-31T21:54:41.337Z,3.90
2018-03-31T21:57:09.109Z,3.90
2018-03-31T21:59:36.108Z,3.90
2018-03-31T22:02:03.179Z,3.90
2018-03-31T22:04:30.993Z,4.00
2018-03-31T22:06:57.999Z,3.90
2018-03-31T22:09:34.500Z,4.10
2018-03-31T22:12:02.329Z,4.00
2018-03-31T22:14:35.035Z,4.00
2018-03-31T22:17:09.808Z,4.00
2018-03-31T22:22:42.597Z,3.90
2018-03-31T22:25:09.748Z,3.80
2018-03-31T22:30:47.174Z,3.70
2018-03-31T22:33:14.296Z,3.80
2018-03-31T22:35:47.386Z,3.80
2018-03-31T22:38:15.249Z,3.80
2018-03-31T22:46:10.461Z,3.90
2018-03-31T22:51:41.400Z,4.10
2018-03-31T22:54:08.409Z,4.10
2018-03-31T22:56:35.453Z,4.00
2018-03-31T22:59:24.729Z,4.10
2018-03-31T23:01:59.129Z,4.10
2018-03-31T23:04:26.199Z,4.10
2018-03-31T23:06:55.525Z,4.20
2018-03-31T23:12:04.035Z,4.20
2018-03-31T23:14:31.124Z,4.20
2018-03-31T23:19:35.864Z,4.20
2018-03-31T23:22:07.376Z,4.10
2018-03-31T23:27:28.586Z,4.10
2018-03-31T23:29:55.609Z,4.10
2018-03-31T23:32:22.604Z,4.10
2018-03-31T23:40:56.903Z,4.10
2018-03-31T23:43:23.979Z,4.00
2018-03-31T23:46:13.973Z,4.00
2018-03-31T23:48:41.196Z,4.00
2018-03-31T23:51:08.265Z,4.00
2018-03-31T23:56:39.429Z,4.10
2018-03-31T23:59:09.895Z,4.20
